Latest Weather Observations for Goulburn Airport

IDN60901

Issued at 5:45 pm EDT Friday 28 November 2014 (issued every 10 minutes, with the page automatically refreshed every 10 minutes)

About weather observations | Map of Canberra area stations | Latest observations for Canberra area | Other Formats
Station Details ID: 070330 Name: GOULBURN AIRPORT AWS Lat: -34.81 Lon: 149.73 Height: 640.0 m
Data from the previous 72 hours. | See also: Recent months at Goulburn Airport
Date/Time
EDT
Tmp

°C
App
Tmp
°C
Dew
Point
°C
Rel
Hum
%
Delta-T

°C
Wind Press
QNH
hPa
Press
MSL
hPa
Rain
since
9 am
mm
Dir
 
Spd
km/h
Gust
km/h
Spd
kts
Gust
kts
28/05:30pm 24.0 20.3 6.3 32 9.4 ENE 15 24 8 13 1019.0 1017.4 0.0
28/05:00pm 24.8 20.5 7.0 32 9.6 E 19 30 10 16 1019.1 1017.5 0.0
28/04:30pm 24.7 21.9 5.0 28 10.2 NNW 9 13 5 7 1019.4 1017.9 0.0
28/04:00pm 23.4 19.6 3.9 28 9.8 N 13 24 7 13 1019.6 1018.1 0.0
28/03:30pm 24.4 21.4 4.2 27 10.3 ENE 9 20 5 11 1020.1 1018.5 0.0
28/03:00pm 23.7 20.3 4.1 28 9.9 N 11 20 6 11 1020.4 1018.8 0.0
28/02:30pm 23.8 20.1 6.1 32 9.3 NNE 15 20 8 11 1020.7 1019.1 0.0
28/02:00pm 23.2 19.6 5.1 31 9.3 E 13 19 7 10 1021.2 1019.7 0.0
28/01:30pm 22.5 18.6 5.4 33 8.8 ENE 15 30 8 16 1021.9 1020.3 0.0
28/01:00pm 21.4 17.2 3.6 31 8.8 NNE 15 24 8 13 1022.4 1020.9 0.0
28/12:30pm 21.3 17.2 6.4 38 7.8 ENE 17 30 9 16 1022.8 1021.3 0.0
28/12:00pm 20.1 16.0 6.4 41 7.1 ENE 17 32 9 17 1023.1 1021.6 0.0
28/11:30am 18.6 14.5 6.4 45 6.3 NE 17 24 9 13 1023.6 1022.1 0.0
28/11:00am 17.6 13.7 7.1 50 5.4 NNE 17 28 9 15 1023.9 1022.4 0.0
28/10:30am 17.1 13.4 8.0 55 4.8 NNE 17 24 9 13 1024.1 1022.6 0.0
28/10:00am 15.3 11.6 7.8 61 3.9 NE 17 26 9 14 1024.3 1022.8 0.0
28/09:30am 15.0 10.9 8.0 63 3.6 NE 19 28 10 15 1024.4 1022.9 0.0
28/09:00am 14.9 10.1 7.5 61 3.8 NE 22 32 12 17 1024.5 1023.0 0.0
28/08:30am 14.2 10.5 7.9 66 3.2 ENE 17 30 9 16 1024.5 1023.0 0.0
28/08:11am 13.4 10.2 8.3 71 2.6 ENE 15 19 8 10 1024.3 1022.8 0.0
28/08:00am 13.2 10.3 8.3 72 2.5 ENE 13 20 7 11 1024.3 1022.8 0.0
28/07:30am 13.0 10.7 8.9 76 2.1 ENE 11 19 6 10 1024.0 1022.5 0.0
28/07:00am 11.6 10.1 9.3 86 1.2 E 7 9 4 5 1023.8 1022.3 0.0
28/06:30am 10.6 8.9 8.5 87 1.1 E 7 9 4 5 1023.6 1022.1 0.0
28/06:17am 10.5 9.0 8.4 87 1.1 E 6 7 3 4 1023.5 1021.9 0.0
28/06:13am 10.2 8.6 8.1 87 1.1 E 6 7 3 4 1023.5 1021.9 0.0
28/06:00am 9.9 8.1 7.8 87 1.0 E 7 11 4 6 1023.4 1021.8 0.0
28/05:30am 10.4 8.9 9.0 91 0.7 E 7 11 4 6 1023.3 1021.7 0.0
28/05:00am 10.2 8.8 9.0 92 0.6 ESE 6 7 3 4 1023.0 1021.5 0.0
28/04:30am 9.9 8.5 8.8 93 0.6 ESE 6 7 3 4 1023.0 1021.5 0.0
28/04:00am 9.1 8.5 7.5 90 0.8 CALM 0 6 0 3 1023.0 1021.5 0.0
28/03:59am 9.1 8.5 7.5 90 0.8 CALM 0 6 0 3 1022.9 1021.4 0.0
28/03:30am 10.0 7.5 8.3 89 0.9 E 11 15 6 8 1023.1 1021.6 0.0
28/03:00am 10.5 7.7 8.6 88 1.0 E 13 17 7 9 1023.5 1021.9 0.0
28/02:52am 10.9 8.2 9.0 88 1.0 E 13 20 7 11 1023.5 1021.9 0.0
28/02:30am 10.6 8.4 9.2 91 0.7 ENE 11 15 6 8 1023.7 1022.2 0.0
28/02:00am 10.6 7.1 8.9 89 0.9 E 17 24 9 13 1023.6 1022.1 0.0
28/01:30am 11.2 7.5 9.3 88 1.0 ESE 19 24 10 13 1024.0 1022.5 0.0
28/01:00am 11.2 7.8 9.1 87 1.1 ESE 17 22 9 12 1024.4 1022.9 0.0
28/12:30am 11.8 8.5 9.5 86 1.2 E 17 24 9 13 1024.3 1022.8 0.0
28/12:00am 12.3 9.1 10.0 86 1.2 E 17 22 9 12 1024.7 1023.2 0.0
 
Date/Time
EDT
Tmp

°C
App
Tmp
°C
Dew
Point
°C
Rel
Hum
%
Delta-T

°C
Wind Press
QNH
hPa
Press
MSL
hPa
Rain
since
9 am
mm
Dir
 
Spd
km/h
Gust
km/h
Spd
kts
Gust
kts
27/11:53pm 12.3 9.1 10.0 86 1.2 E 17 24 9 13 1024.7 1023.2 0.0
27/11:30pm 12.2 9.1 10.4 89 1.0 E 17 26 9 14 1024.9 1023.3 0.0
27/11:00pm 12.5 9.4 10.2 86 1.2 E 17 26 9 14 1025.1 1023.6 0.0
27/10:56pm 12.5 9.4 10.2 86 1.2 E 17 26 9 14 1025.1 1023.6 0.0
27/10:30pm 12.6 9.4 10.1 85 1.3 E 17 22 9 12 1025.1 1023.6 0.0
27/10:00pm 12.7 9.2 10.2 85 1.3 E 19 24 10 13 1025.1 1023.6 0.0
27/09:30pm 12.8 9.3 10.2 84 1.4 ESE 19 24 10 13 1025.1 1023.6 0.0
27/09:00pm 12.9 9.8 10.3 84 1.4 E 17 24 9 13 1024.7 1023.2 0.0
27/08:30pm 13.1 9.6 10.1 82 1.6 E 19 24 10 13 1024.4 1022.9 0.0
27/08:00pm 13.4 9.4 10.4 82 1.6 E 22 35 12 19 1024.1 1022.6 0.0
27/07:30pm 13.7 8.6 10.5 81 1.7 ESE 28 35 15 19 1023.7 1022.2 0.0
27/07:00pm 14.4 10.1 10.8 79 2.0 E 24 32 13 17 1023.4 1021.8 0.0
27/06:42pm 15.2 10.5 10.6 74 2.5 E 26 39 14 21 1022.9 1021.4 0.0
27/06:30pm 16.0 10.9 10.5 70 3.0 E 28 39 15 21 1022.6 1021.1 0.0
27/06:00pm 17.6 12.5 10.5 63 3.9 ENE 28 35 15 19 1022.0 1020.4 0.0
27/05:30pm 18.6 14.0 10.9 61 4.3 ENE 26 35 14 19 1021.7 1020.1 0.0
27/05:00pm 19.8 15.3 10.2 54 5.3 ENE 24 35 13 19 1021.4 1019.9 0.0
27/04:30pm 21.2 17.8 10.4 50 6.1 NE 19 26 10 14 1021.6 1020.0 0.0
27/04:00pm 21.0 18.2 9.9 49 6.1 E 15 22 8 12 1021.8 1020.2 0.0
27/03:30pm 19.8 16.4 9.1 50 5.8 ENE 17 28 9 15 1021.9 1020.3 0.0
27/03:00pm 19.4 15.5 9.6 53 5.4 ENE 20 28 11 15 1022.1 1020.5 0.0
27/02:30pm 19.8 16.8 10.8 56 5.1 ENE 17 24 9 13 1022.3 1020.8 0.0
27/02:00pm 18.7 15.2 10.3 58 4.6 E 19 30 10 16 1022.7 1021.2 0.0
27/01:30pm 19.0 15.7 10.8 59 4.6 ENE 19 32 10 17 1022.7 1021.2 0.0
27/01:00pm 18.3 14.9 11.4 64 3.9 E 20 32 11 17 1022.9 1021.4 0.0
27/12:30pm 16.3 11.3 11.0 71 2.9 E 28 35 15 19 1023.1 1021.6 0.0
27/12:22pm 16.5 11.9 11.2 71 2.9 E 26 33 14 18 1023.3 1021.7 0.0
27/12:12pm 16.0 11.4 11.2 73 2.7 E 26 37 14 20 1023.3 1021.7 0.0
27/12:00pm 17.4 13.5 10.8 65 3.6 E 22 30 12 16 1023.3 1021.7 0.0
27/11:30am 17.2 14.3 11.0 67 3.4 E 17 26 9 14 1023.4 1021.8 0.0
27/11:00am 17.0 13.7 11.7 71 3.0 E 20 28 11 15 1023.6 1022.1 0.0
27/10:51am 16.6 13.0 11.7 73 2.8 E 22 28 12 15 1023.6 1022.1 0.0
27/10:30am 15.4 12.2 12.0 80 1.9 E 20 26 11 14 1023.5 1021.9 0.0
27/10:00am 16.0 13.8 12.0 77 2.2 ENE 15 22 8 12 1023.3 1021.7 0.0
27/09:30am 14.3 11.6 11.8 85 1.4 NE 17 22 9 12 1023.3 1021.7 0.0
27/09:00am 14.4 12.1 11.7 84 1.5 E 15 19 8 10 1023.5 1021.9 0.0
27/08:30am 14.1 12.1 11.4 84 1.5 E 13 20 7 11 1023.4 1021.8 0.0
27/08:00am 13.7 10.9 11.2 85 1.4 E 17 22 9 12 1023.1 1021.6 0.0
27/07:30am 13.7 11.2 11.2 85 1.4 E 15 20 8 11 1022.9 1021.4 0.0
27/07:00am 13.5 11.0 11.2 86 1.3 E 15 20 8 11 1022.6 1021.1 0.0
27/06:30am 13.3 10.5 11.2 87 1.1 ESE 17 22 9 12 1022.2 1020.7 0.0
27/06:00am 13.1 10.6 11.2 88 1.0 E 15 20 8 11 1021.9 1020.3 0.0
27/05:30am 13.2 10.3 10.9 86 1.2 E 17 22 9 12 1021.6 1020.0 0.0
27/05:00am 13.3 9.8 11.0 86 1.2 E 20 30 11 16 1021.4 1019.9 0.0
27/04:30am 13.4 10.5 10.9 85 1.4 E 17 24 9 13 1021.1 1019.6 0.0
27/04:00am 13.3 10.0 11.0 86 1.2 ESE 19 26 10 14 1021.0 1019.5 0.0
27/03:30am 13.4 10.0 11.1 86 1.3 ESE 20 26 11 14 1020.7 1019.1 0.0
27/03:00am 13.7 10.5 11.2 85 1.4 ESE 19 24 10 13 1020.6 1019.0 0.0
27/02:30am 13.9 10.7 11.1 83 1.5 ESE 19 28 10 15 1020.7 1019.1 0.0
27/02:00am 14.0 10.2 11.2 83 1.5 ESE 22 32 12 17 1020.7 1019.1 0.0
27/01:30am 13.9 10.1 11.2 84 1.5 ESE 22 32 12 17 1020.9 1019.4 0.0
27/01:00am 14.3 10.2 11.6 84 1.5 SE 24 30 13 16 1021.1 1019.6 0.0
27/12:30am 14.2 12.0 12.1 87 1.2 SE 15 20 8 11 1021.3 1019.8 0.0
27/12:26am 14.2 12.0 12.1 87 1.2 SE 15 19 8 10 1021.4 1019.9 0.0
27/12:00am 13.3 11.3 11.4 88 1.0 S 13 17 7 9 1021.6 1020.0 0.0
 
Date/Time
EDT
Tmp

°C
App
Tmp
°C
Dew
Point
°C
Rel
Hum
%
Delta-T

°C
Wind Press
QNH
hPa
Press
MSL
hPa
Rain
since
9 am
mm
Dir
 
Spd
km/h
Gust
km/h
Spd
kts
Gust
kts
26/11:32pm 13.1 10.8 10.6 85 1.3 SSE 13 15 7 8 1021.4 1019.9 0.0
26/11:30pm 13.0 10.7 10.4 84 1.4 SSE 13 15 7 8 1021.4 1019.9 0.0
26/11:00pm 14.2 12.9 11.4 83 1.5 SE 9 11 5 6 1021.3 1019.8 0.0
26/10:52pm 14.1 12.5 11.4 84 1.5 SE 11 13 6 7 1021.3 1019.8 0.0
26/10:30pm 13.8 12.3 10.4 80 1.8 SSE 9 11 5 6 1021.3 1019.8 0.0
26/10:00pm 14.8 13.2 11.4 80 1.9 SE 11 19 6 10 1021.1 1019.6 0.0
26/09:30pm 15.6 12.4 11.2 75 2.4 SE 19 28 10 15 1020.9 1019.4 0.0
26/09:00pm 16.4 13.2 11.8 74 2.6 SE 20 30 11 16 1020.4 1018.8 0.0
26/08:30pm 16.7 13.5 11.8 73 2.8 ESE 20 28 11 15 1020.0 1018.4 0.0
26/08:00pm 17.4 14.1 11.7 69 3.2 SE 20 32 11 17 1019.6 1018.1 0.0
26/07:30pm 17.8 13.7 11.6 67 3.5 ESE 24 33 13 18 1019.1 1017.5 0.0
26/07:00pm 19.3 14.0 11.3 60 4.5 ESE 30 41 16 22 1018.3 1016.7 0.0
26/06:39pm 21.1 16.2 11.2 53 5.6 ESE 28 46 15 25 1017.3 1015.7 0.0
26/06:30pm 23.9 18.8 -1.8 18 11.7 WSW 15 20 8 11 1017.3 1015.7 0.0
26/06:00pm 24.5 19.5 -1.3 18 11.9 W 15 20 8 11 1016.9 1015.3 0.0
26/05:30pm 25.2 19.8 1.3 21 11.7 W 19 24 10 13 1016.7 1015.0 0.0
26/05:00pm 24.4 17.8 -3.0 16 12.3 WNW 22 33 12 18 1016.7 1015.0 0.0
26/04:30pm 25.4 19.5 -0.6 18 12.3 WNW 20 26 11 14 1016.8 1015.2 0.0
26/04:00pm 25.1 19.4 -0.9 18 12.2 WSW 19 30 10 16 1016.9 1015.3 0.0
26/03:30pm 25.4 19.6 0.1 19 12.1 WSW 20 33 11 18 1017.0 1015.4 0.0
26/03:00pm 24.8 19.1 -1.1 18 12.0 W 19 33 10 18 1017.2 1015.6 0.0
26/02:30pm 24.9 18.7 -0.3 19 11.9 WNW 22 33 12 18 1017.4 1015.8 0.0
26/02:00pm 23.9 17.7 -0.4 20 11.4 WNW 22 35 12 19 1017.5 1015.9 0.0
26/01:30pm 23.3 16.7 2.2 25 10.3 W 26 39 14 21 1017.8 1016.2 0.0
26/01:00pm 23.4 16.9 -2.2 18 11.5 WNW 22 32 12 17 1018.1 1016.6 0.0
26/12:30pm 22.9 16.9 -1.2 20 11.0 W 20 32 11 17 1018.5 1016.9 0.0
26/12:00pm 22.6 15.1 1.0 24 10.3 W 30 37 16 20 1018.7 1017.1 0.0
26/11:30am 22.3 16.3 3.4 29 9.4 WNW 24 37 13 20 1019.1 1017.5 0.0
26/11:00am 21.4 16.5 5.3 35 8.2 WNW 20 32 11 17 1019.2 1017.6 0.0
26/10:30am 20.1 15.9 8.1 46 6.4 NNW 20 26 11 14 1019.5 1018.0 0.0
26/10:00am 20.0 16.8 9.9 52 5.6 NNW 17 37 9 20 1019.7 1018.2 0.0
26/09:30am 17.6 14.9 10.2 62 4.1 NNW 15 24 8 13 1020.1 1018.5 0.0
26/09:00am 16.3 13.2 10.4 68 3.2 N 17 20 9 11 1020.4 1018.8 0.0
26/08:30am 14.7 12.5 10.9 78 2.1 N 13 17 7 9 1020.5 1018.9 0.0
26/08:00am 11.8 10.7 10.5 92 0.7 N 7 9 4 5 1020.6 1019.0 0.0
26/07:30am 10.4 10.1 10.1 98 0.2 N 2 6 1 3 1020.6 1019.0 0.0
26/07:24am 9.9 9.1 9.6 98 0.2 N 4 6 2 3 1020.6 1019.0 0.0
26/07:00am 8.9 8.6 8.6 98 0.2 CALM 0 0 0 0 1020.5 1018.9 0.0
26/06:30am 8.2 7.7 7.9 98 0.1 CALM 0 0 0 0 1020.3 1018.7 0.0
26/06:00am 7.9 7.3 7.6 98 0.1 CALM 0 6 0 3 1020.2 1018.6 0.0
26/05:30am 7.6 7.0 7.2 97 0.2 CALM 0 0 0 0 1019.7 1018.2 0.0
26/05:00am 7.2 6.5 6.8 97 0.2 CALM 0 0 0 0 1019.5 1018.0 0.0
26/04:30am 6.6 5.0 6.2 97 0.2 SSW 4 6 2 3 1019.5 1018.0 0.0
26/04:00am 7.0 5.1 6.6 97 0.2 SSE 6 7 3 4 1019.4 1017.9 0.0
26/03:30am 5.2 2.8 4.3 94 0.4 S 6 7 3 4 1019.4 1017.9 0.0
26/03:28am 5.3 2.9 4.4 94 0.4 SSW 6 7 3 4 1019.4 1017.9 0.0
26/03:00am 6.1 3.9 5.1 93 0.5 SW 6 9 3 5 1019.9 1018.3 0.0
26/02:30am 7.7 6.9 6.6 93 0.5 CALM 0 2 0 1 1019.9 1018.3 0.0
26/02:00am 8.0 7.1 6.1 88 0.9 CALM 0 0 0 0 1020.1 1018.5 0.0
26/01:30am 10.8 10.4 9.6 92 0.6 NE 2 7 1 4 1020.4 1018.8 0.0
26/01:00am 11.1 9.7 9.7 91 0.7 N 7 9 4 5 1020.6 1019.0 0.0
26/12:30am 11.3 9.2 9.7 90 0.8 NNE 11 15 6 8 1020.8 1019.3 0.0
26/12:00am 12.2 9.5 10.3 88 1.0 NE 15 19 8 10 1020.9 1019.4 0.0
 
Date/Time
EDT
Tmp

°C
App
Tmp
°C
Dew
Point
°C
Rel
Hum
%
Delta-T

°C
Wind Press
QNH
hPa
Press
MSL
hPa
Rain
since
9 am
mm
Dir
 
Spd
km/h
Gust
km/h
Spd
kts
Gust
kts
25/11:30pm 13.0 9.6 10.7 86 1.2 NE 19 24 10 13 1020.9 1019.4 0.0
25/11:00pm 12.9 9.6 10.8 87 1.1 NE 19 26 10 14 1021.0 1019.5 0.0
25/10:30pm 12.9 9.5 10.4 85 1.3 ENE 19 33 10 18 1020.9 1019.4 0.0
25/10:00pm 13.3 9.4 10.7 84 1.4 NE 22 32 12 17 1020.7 1019.1 0.0
25/09:30pm 13.4 10.0 10.4 82 1.6 ENE 19 32 10 17 1020.5 1018.9 0.0
25/09:00pm 13.8 9.6 9.8 77 2.1 ENE 22 28 12 15 1020.0 1018.4 0.0
25/08:30pm 12.0 8.6 -1.9 38 5.7 NNE 6 9 3 5 1019.4 1017.9 0.0
25/08:00pm 16.4 11.2 -2.6 27 8.0 WNW 15 19 8 10 1018.8 1017.2 0.0
25/07:30pm 18.5 12.5 -3.0 23 9.1 W 19 24 10 13 1018.4 1016.8 0.0
25/07:00pm 20.4 13.8 -3.3 20 10.2 W 22 33 12 18 1018.0 1016.4 0.0
25/06:30pm 21.4 14.2 -5.4 16 11.2 W 24 30 13 16 1017.5 1015.9 0.0
25/06:00pm 21.9 14.8 -4.2 17 11.2 WNW 24 35 13 19 1017.3 1015.7 0.0

Latest Capital City Observations: Canberra | Sydney | Melbourne | Brisbane | Adelaide | Perth | Hobart | Darwin

Other Formats:

Comma delimited format used in spreadsheet applications
http://www.bom.gov.au/fwo/IDN60903/IDN60903.95716.axf

JavaScript Object Notation format (JSON) in row-major order
http://www.bom.gov.au/fwo/IDN60903/IDN60903.95716.json